sensor_id;sensor_type;location;lat;lon;timestamp;temperature;humidity
52181;DHT22;38158;53.338;6.514;2023-06-24T00:02:08;16.20;99.90
52181;DHT22;38158;53.338;6.514;2023-06-24T00:04:34;16.10;99.90
52181;DHT22;38158;53.338;6.514;2023-06-24T00:07:00;16.10;99.90
52181;DHT22;38158;53.338;6.514;2023-06-24T00:09:27;16.10;99.90
52181;DHT22;38158;53.338;6.514;2023-06-24T00:11:59;16.00;99.90
52181;DHT22;38158;53.338;6.514;2023-06-24T00:14:25;16.10;99.90
52181;DHT22;38158;53.338;6.514;2023-06-24T00:16:52;16.10;99.90
52181;DHT22;38158;53.338;6.514;2023-06-24T00:19:20;16.10;99.90
52181;DHT22;38158;53.338;6.514;2023-06-24T00:21:49;16.00;99.90
52181;DHT22;38158;53.338;6.514;2023-06-24T00:24:19;16.00;99.90
52181;DHT22;38158;53.338;6.514;2023-06-24T00:26:48;16.00;99.90
52181;DHT22;38158;53.338;6.514;2023-06-24T00:29:14;15.90;99.90
52181;DHT22;38158;53.338;6.514;2023-06-24T00:31:40;15.90;99.90
52181;DHT22;38158;53.338;6.514;2023-06-24T00:34:06;15.90;99.90
52181;DHT22;38158;53.338;6.514;2023-06-24T00:36:32;15.90;99.90
52181;DHT22;38158;53.338;6.514;2023-06-24T00:38:58;15.90;99.90
52181;DHT22;38158;53.338;6.514;2023-06-24T00:41:31;15.90;99.90
52181;DHT22;38158;53.338;6.514;2023-06-24T00:43:57;15.90;99.90
52181;DHT22;38158;53.338;6.514;2023-06-24T00:46:27;15.80;99.90
52181;DHT22;38158;53.338;6.514;2023-06-24T00:48:55;15.70;99.90
52181;DHT22;38158;53.338;6.514;2023-06-24T00:51:21;15.70;99.90
52181;DHT22;38158;53.338;6.514;2023-06-24T00:53:54;15.70;99.90
52181;DHT22;38158;53.338;6.514;2023-06-24T00:56:22;15.60;99.90
52181;DHT22;38158;53.338;6.514;2023-06-24T00:58:50;15.60;99.90
52181;DHT22;38158;53.338;6.514;2023-06-24T01:01:16;15.60;99.90
52181;DHT22;38158;53.338;6.514;2023-06-24T01:03:42;15.50;99.90
52181;DHT22;38158;53.338;6.514;2023-06-24T01:06:08;15.50;99.90
52181;DHT22;38158;53.338;6.514;2023-06-24T01:08:35;15.50;99.90
52181;DHT22;38158;53.338;6.514;2023-06-24T01:11:01;15.50;99.90
52181;DHT22;38158;53.338;6.514;2023-06-24T01:13:26;15.40;99.90
52181;DHT22;38158;53.338;6.514;2023-06-24T01:15:52;15.40;99.90
52181;DHT22;38158;53.338;6.514;2023-06-24T01:18:24;15.40;99.90
52181;DHT22;38158;53.338;6.514;2023-06-24T01:21:10;15.30;99.90
52181;DHT22;38158;53.338;6.514;2023-06-24T01:32:03;15.30;99.90
52181;DHT22;38158;53.338;6.514;2023-06-24T01:34:39;15.30;99.90
52181;DHT22;38158;53.338;6.514;2023-06-24T01:39:41;15.40;99.90
52181;DHT22;38158;53.338;6.514;2023-06-24T01:42:10;15.40;99.90
52181;DHT22;38158;53.338;6.514;2023-06-24T01:44:39;15.40;99.90
52181;DHT22;38158;53.338;6.514;2023-06-24T01:47:07;15.40;99.90
52181;DHT22;38158;53.338;6.514;2023-06-24T01:49:33;15.40;99.90
52181;DHT22;38158;53.338;6.514;2023-06-24T01:51:59;15.30;99.90
52181;DHT22;38158;53.338;6.514;2023-06-24T01:54:28;15.30;99.90
52181;DHT22;38158;53.338;6.514;2023-06-24T01:56:56;15.30;99.90
52181;DHT22;38158;53.338;6.514;2023-06-24T01:59:23;15.20;99.90
52181;DHT22;38158;53.338;6.514;2023-06-24T02:01:51;15.20;99.90
52181;DHT22;38158;53.338;6.514;2023-06-24T02:04:19;15.20;99.90
52181;DHT22;38158;53.338;6.514;2023-06-24T02:06:46;15.20;99.90
52181;DHT22;38158;53.338;6.514;2023-06-24T02:09:14;15.20;99.90
52181;DHT22;38158;53.338;6.514;2023-06-24T02:11:41;15.20;99.90
52181;DHT22;38158;53.338;6.514;2023-06-24T02:14:08;15.20;99.90
52181;DHT22;38158;53.338;6.514;2023-06-24T02:16:35;15.20;99.90
52181;DHT22;38158;53.338;6.514;2023-06-24T02:19:02;15.20;99.90
52181;DHT22;38158;53.338;6.514;2023-06-24T02:21:30;15.20;99.90
52181;DHT22;38158;53.338;6.514;2023-06-24T02:23:57;15.20;99.90
52181;DHT22;38158;53.338;6.514;2023-06-24T02:26:23;15.20;99.90
52181;DHT22;38158;53.338;6.514;2023-06-24T02:28:52;15.20;99.90
52181;DHT22;38158;53.338;6.514;2023-06-24T02:31:18;15.30;99.90
52181;DHT22;38158;53.338;6.514;2023-06-24T02:33:44;15.30;99.90
52181;DHT22;38158;53.338;6.514;2023-06-24T02:36:10;15.30;99.90
52181;DHT22;38158;53.338;6.514;2023-06-24T02:38:36;15.30;99.90
52181;DHT22;38158;53.338;6.514;2023-06-24T02:41:02;15.40;99.90
52181;DHT22;38158;53.338;6.514;2023-06-24T02:43:30;15.40;99.90
52181;DHT22;38158;53.338;6.514;2023-06-24T02:45:57;15.40;99.90
52181;DHT22;38158;53.338;6.514;2023-06-24T02:48:23;15.40;99.90
52181;DHT22;38158;53.338;6.514;2023-06-24T02:50:50;15.30;99.90
52181;DHT22;38158;53.338;6.514;2023-06-24T02:53:16;15.30;99.90
52181;DHT22;38158;53.338;6.514;2023-06-24T02:55:43;15.30;99.90
52181;DHT22;38158;53.338;6.514;2023-06-24T02:58:09;15.30;99.90
52181;DHT22;38158;53.338;6.514;2023-06-24T03:00:38;15.30;99.90
52181;DHT22;38158;53.338;6.514;2023-06-24T03:03:05;15.30;99.90
52181;DHT22;38158;53.338;6.514;2023-06-24T03:05:32;15.30;99.90
52181;DHT22;38158;53.338;6.514;2023-06-24T03:07:58;15.20;99.90
52181;DHT22;38158;53.338;6.514;2023-06-24T03:10:25;15.20;99.90
52181;DHT22;38158;53.338;6.514;2023-06-24T03:12:51;15.20;99.90
52181;DHT22;38158;53.338;6.514;2023-06-24T03:15:17;15.20;99.90
52181;DHT22;38158;53.338;6.514;2023-06-24T03:17:43;15.20;99.90
52181;DHT22;38158;53.338;6.514;2023-06-24T03:20:09;15.20;99.90
52181;DHT22;38158;53.338;6.514;2023-06-24T03:22:36;15.20;99.90
52181;DHT22;38158;53.338;6.514;2023-06-24T03:25:02;15.20;99.90
52181;DHT22;38158;53.338;6.514;2023-06-24T03:27:28;15.30;99.90
52181;DHT22;38158;53.338;6.514;2023-06-24T03:29:54;15.20;99.90
52181;DHT22;38158;53.338;6.514;2023-06-24T03:32:19;15.20;99.90
52181;DHT22;38158;53.338;6.514;2023-06-24T03:34:45;15.20;99.90
52181;DHT22;38158;53.338;6.514;2023-06-24T03:37:11;15.20;99.90
52181;DHT22;38158;53.338;6.514;2023-06-24T03:39:37;15.20;99.90
52181;DHT22;38158;53.338;6.514;2023-06-24T03:42:03;15.20;99.90
52181;DHT22;38158;53.338;6.514;2023-06-24T03:44:29;15.20;99.90
52181;DHT22;38158;53.338;6.514;2023-06-24T03:46:54;15.20;99.90
52181;DHT22;38158;53.338;6.514;2023-06-24T03:49:20;15.20;99.90
52181;DHT22;38158;53.338;6.514;2023-06-24T03:51:46;15.20;99.90
52181;DHT22;38158;53.338;6.514;2023-06-24T03:54:11;15.20;99.90
52181;DHT22;38158;53.338;6.514;2023-06-24T03:56:37;15.30;99.90
52181;DHT22;38158;53.338;6.514;2023-06-24T03:59:03;15.20;99.90
52181;DHT22;38158;53.338;6.514;2023-06-24T04:01:28;15.30;99.90
52181;DHT22;38158;53.338;6.514;2023-06-24T04:03:58;15.30;99.90
52181;DHT22;38158;53.338;6.514;2023-06-24T04:06:23;15.30;99.90
52181;DHT22;38158;53.338;6.514;2023-06-24T04:08:49;15.20;99.90
52181;DHT22;38158;53.338;6.514;2023-06-24T04:11:17;15.20;99.90
52181;DHT22;38158;53.338;6.514;2023-06-24T04:13:44;15.20;99.90
52181;DHT22;38158;53.338;6.514;2023-06-24T04:16:10;15.20;99.90
52181;DHT22;38158;53.338;6.514;2023-06-24T04:18:36;15.20;99.90
52181;DHT22;38158;53.338;6.514;2023-06-24T04:21:05;15.20;99.90
52181;DHT22;38158;53.338;6.514;2023-06-24T04:23:32;15.30;99.90
52181;DHT22;38158;53.338;6.514;2023-06-24T04:25:58;15.30;99.90
52181;DHT22;38158;53.338;6.514;2023-06-24T04:28:23;15.30;99.90
52181;DHT22;38158;53.338;6.514;2023-06-24T04:30:49;15.30;99.90
52181;DHT22;38158;53.338;6.514;2023-06-24T04:33:15;15.30;99.90
52181;DHT22;38158;53.338;6.514;2023-06-24T04:35:41;15.30;99.90
52181;DHT22;38158;53.338;6.514;2023-06-24T04:38:06;15.30;99.90
52181;DHT22;38158;53.338;6.514;2023-06-24T04:40:32;15.30;99.90
52181;DHT22;38158;53.338;6.514;2023-06-24T04:42:58;15.40;99.90
52181;DHT22;38158;53.338;6.514;2023-06-24T04:45:24;15.40;99.90
52181;DHT22;38158;53.338;6.514;2023-06-24T04:47:49;15.40;99.90
52181;DHT22;38158;53.338;6.514;2023-06-24T04:50:15;15.50;99.90
52181;DHT22;38158;53.338;6.514;2023-06-24T04:52:41;15.50;99.90
52181;DHT22;38158;53.338;6.514;2023-06-24T04:55:07;15.50;99.90
52181;DHT22;38158;53.338;6.514;2023-06-24T04:57:33;15.60;99.90
52181;DHT22;38158;53.338;6.514;2023-06-24T04:59:59;15.60;99.90
52181;DHT22;38158;53.338;6.514;2023-06-24T05:02:25;15.70;99.90
52181;DHT22;38158;53.338;6.514;2023-06-24T05:04:52;15.80;99.90
52181;DHT22;38158;53.338;6.514;2023-06-24T05:07:18;15.80;99.90
52181;DHT22;38158;53.338;6.514;2023-06-24T05:09:47;15.90;99.90
52181;DHT22;38158;53.338;6.514;2023-06-24T05:12:13;16.00;99.90
52181;DHT22;38158;53.338;6.514;2023-06-24T05:14:39;16.10;99.90
52181;DHT22;38158;53.338;6.514;2023-06-24T05:17:05;16.10;99.90
52181;DHT22;38158;53.338;6.514;2023-06-24T05:19:31;16.20;99.90
52181;DHT22;38158;53.338;6.514;2023-06-24T05:21:56;16.30;99.90
52181;DHT22;38158;53.338;6.514;2023-06-24T05:24:22;16.40;99.90
52181;DHT22;38158;53.338;6.514;2023-06-24T05:26:49;16.50;99.90
52181;DHT22;38158;53.338;6.514;2023-06-24T05:29:16;16.60;99.90
52181;DHT22;38158;53.338;6.514;2023-06-24T05:31:42;16.70;99.90
52181;DHT22;38158;53.338;6.514;2023-06-24T05:34:08;16.90;99.90
52181;DHT22;38158;53.338;6.514;2023-06-24T05:36:34;17.00;99.90
52181;DHT22;38158;53.338;6.514;2023-06-24T05:39:00;17.20;99.90
52181;DHT22;38158;53.338;6.514;2023-06-24T05:41:25;17.30;99.90
52181;DHT22;38158;53.338;6.514;2023-06-24T05:44:05;17.40;99.90
52181;DHT22;38158;53.338;6.514;2023-06-24T05:46:31;17.40;99.90
52181;DHT22;38158;53.338;6.514;2023-06-24T05:48:57;17.50;99.90
52181;DHT22;38158;53.338;6.514;2023-06-24T05:51:23;17.50;99.90
52181;DHT22;38158;53.338;6.514;2023-06-24T05:53:49;17.60;99.90
52181;DHT22;38158;53.338;6.514;2023-06-24T05:56:14;17.60;99.90
52181;DHT22;38158;53.338;6.514;2023-06-24T05:58:40;17.70;99.90
52181;DHT22;38158;53.338;6.514;2023-06-24T06:01:11;17.90;99.90
52181;DHT22;38158;53.338;6.514;2023-06-24T06:03:37;18.00;99.90
52181;DHT22;38158;53.338;6.514;2023-06-24T06:06:03;18.10;99.90
52181;DHT22;38158;53.338;6.514;2023-06-24T06:08:29;18.20;99.90
52181;DHT22;38158;53.338;6.514;2023-06-24T06:10:55;18.30;99.90
52181;DHT22;38158;53.338;6.514;2023-06-24T06:13:21;18.40;99.90
52181;DHT22;38158;53.338;6.514;2023-06-24T06:15:47;18.40;99.90
52181;DHT22;38158;53.338;6.514;2023-06-24T06:18:14;18.50;99.90
52181;DHT22;38158;53.338;6.514;2023-06-24T06:20:39;18.50;99.90
52181;DHT22;38158;53.338;6.514;2023-06-24T06:23:05;18.60;99.90
52181;DHT22;38158;53.338;6.514;2023-06-24T06:25:32;18.60;99.90
52181;DHT22;38158;53.338;6.514;2023-06-24T06:27:58;18.70;99.90
52181;DHT22;38158;53.338;6.514;2023-06-24T06:30:23;18.70;99.90
52181;DHT22;38158;53.338;6.514;2023-06-24T06:32:49;18.80;99.90
52181;DHT22;38158;53.338;6.514;2023-06-24T06:35:15;18.90;99.90
52181;DHT22;38158;53.338;6.514;2023-06-24T06:37:40;18.90;99.90
52181;DHT22;38158;53.338;6.514;2023-06-24T06:40:07;18.90;99.90
52181;DHT22;38158;53.338;6.514;2023-06-24T06:42:33;19.00;99.90
52181;DHT22;38158;53.338;6.514;2023-06-24T06:44:58;19.10;99.90
52181;DHT22;38158;53.338;6.514;2023-06-24T06:47:24;19.10;99.90
52181;DHT22;38158;53.338;6.514;2023-06-24T06:49:50;19.20;99.90
52181;DHT22;38158;53.338;6.514;2023-06-24T06:52:16;19.30;99.90
52181;DHT22;38158;53.338;6.514;2023-06-24T06:54:41;19.30;99.90
52181;DHT22;38158;53.338;6.514;2023-06-24T06:57:07;19.40;99.90
52181;DHT22;38158;53.338;6.514;2023-06-24T06:59:33;19.50;99.90
52181;DHT22;38158;53.338;6.514;2023-06-24T07:01:58;19.60;99.90
52181;DHT22;38158;53.338;6.514;2023-06-24T07:04:24;19.70;99.90
52181;DHT22;38158;53.338;6.514;2023-06-24T07:06:50;19.80;99.90
52181;DHT22;38158;53.338;6.514;2023-06-24T07:09:16;19.90;99.90
52181;DHT22;38158;53.338;6.514;2023-06-24T07:11:43;20.00;99.90
52181;DHT22;38158;53.338;6.514;2023-06-24T07:14:08;20.10;99.90
52181;DHT22;38158;53.338;6.514;2023-06-24T07:16:35;20.20;99.90
52181;DHT22;38158;53.338;6.514;2023-06-24T07:19:01;20.20;99.90
52181;DHT22;38158;53.338;6.514;2023-06-24T07:21:27;20.20;99.90
52181;DHT22;38158;53.338;6.514;2023-06-24T07:23:52;20.40;99.90
52181;DHT22;38158;53.338;6.514;2023-06-24T07:26:18;20.50;99.90
52181;DHT22;38158;53.338;6.514;2023-06-24T07:28:44;20.60;99.90
52181;DHT22;38158;53.338;6.514;2023-06-24T07:31:09;20.80;99.90
52181;DHT22;38158;53.338;6.514;2023-06-24T07:33:36;20.90;99.90
52181;DHT22;38158;53.338;6.514;2023-06-24T07:36:02;21.00;99.90
52181;DHT22;38158;53.338;6.514;2023-06-24T07:38:29;21.10;99.90
52181;DHT22;38158;53.338;6.514;2023-06-24T07:40:55;21.20;99.90
52181;DHT22;38158;53.338;6.514;2023-06-24T07:43:21;21.20;99.90
52181;DHT22;38158;53.338;6.514;2023-06-24T07:45:47;21.30;99.90
52181;DHT22;38158;53.338;6.514;2023-06-24T07:48:13;21.40;99.90
52181;DHT22;38158;53.338;6.514;2023-06-24T07:50:39;21.50;99.90
52181;DHT22;38158;53.338;6.514;2023-06-24T07:53:05;21.70;99.90
52181;DHT22;38158;53.338;6.514;2023-06-24T07:55:31;21.80;99.90
52181;DHT22;38158;53.338;6.514;2023-06-24T07:57:57;22.00;99.90
52181;DHT22;38158;53.338;6.514;2023-06-24T08:00:23;22.20;99.90
52181;DHT22;38158;53.338;6.514;2023-06-24T08:02:49;22.30;99.90
52181;DHT22;38158;53.338;6.514;2023-06-24T08:05:15;22.30;99.90
52181;DHT22;38158;53.338;6.514;2023-06-24T08:07:44;22.40;99.90
52181;DHT22;38158;53.338;6.514;2023-06-24T08:10:09;22.50;99.90
52181;DHT22;38158;53.338;6.514;2023-06-24T08:12:35;22.50;99.90
52181;DHT22;38158;53.338;6.514;2023-06-24T08:15:01;22.60;99.90
52181;DHT22;38158;53.338;6.514;2023-06-24T08:17:27;22.70;99.90
52181;DHT22;38158;53.338;6.514;2023-06-24T08:19:53;22.70;99.90
52181;DHT22;38158;53.338;6.514;2023-06-24T08:22:18;22.80;99.90
52181;DHT22;38158;53.338;6.514;2023-06-24T08:24:44;22.80;99.90
52181;DHT22;38158;53.338;6.514;2023-06-24T08:27:10;22.80;99.90
52181;DHT22;38158;53.338;6.514;2023-06-24T08:29:35;22.80;99.90
52181;DHT22;38158;53.338;6.514;2023-06-24T08:32:03;22.80;99.90
52181;DHT22;38158;53.338;6.514;2023-06-24T08:34:30;22.90;99.90
52181;DHT22;38158;53.338;6.514;2023-06-24T08:36:55;22.80;99.90
52181;DHT22;38158;53.338;6.514;2023-06-24T08:39:21;22.90;99.90
52181;DHT22;38158;53.338;6.514;2023-06-24T08:41:47;22.90;99.90
52181;DHT22;38158;53.338;6.514;2023-06-24T08:44:12;23.00;99.90
52181;DHT22;38158;53.338;6.514;2023-06-24T08:46:38;23.20;99.90
52181;DHT22;38158;53.338;6.514;2023-06-24T08:54:24;23.50;99.90
52181;DHT22;38158;53.338;6.514;2023-06-24T08:56:51;23.60;99.90
52181;DHT22;38158;53.338;6.514;2023-06-24T08:59:17;23.80;99.90
52181;DHT22;38158;53.338;6.514;2023-06-24T09:01:46;24.00;99.90
52181;DHT22;38158;53.338;6.514;2023-06-24T09:04:12;24.10;99.90
52181;DHT22;38158;53.338;6.514;2023-06-24T09:06:38;24.00;99.90
52181;DHT22;38158;53.338;6.514;2023-06-24T09:09:03;24.00;99.90
52181;DHT22;38158;53.338;6.514;2023-06-24T09:11:30;24.10;99.90
52181;DHT22;38158;53.338;6.514;2023-06-24T09:14:01;24.20;99.90
52181;DHT22;38158;53.338;6.514;2023-06-24T09:16:27;24.20;99.90
52181;DHT22;38158;53.338;6.514;2023-06-24T09:18:54;24.10;99.90
52181;DHT22;38158;53.338;6.514;2023-06-24T09:21:27;24.30;99.90
52181;DHT22;38158;53.338;6.514;2023-06-24T09:23:57;24.50;99.90
52181;DHT22;38158;53.338;6.514;2023-06-24T09:26:26;24.50;99.90
52181;DHT22;38158;53.338;6.514;2023-06-24T09:28:53;24.60;99.90
52181;DHT22;38158;53.338;6.514;2023-06-24T09:31:19;24.70;99.90
52181;DHT22;38158;53.338;6.514;2023-06-24T09:33:46;24.80;99.90
52181;DHT22;38158;53.338;6.514;2023-06-24T09:36:13;24.80;99.90
52181;DHT22;38158;53.338;6.514;2023-06-24T09:38:45;24.90;99.90
52181;DHT22;38158;53.338;6.514;2023-06-24T09:41:11;24.90;99.90
52181;DHT22;38158;53.338;6.514;2023-06-24T09:43:38;24.90;99.90
52181;DHT22;38158;53.338;6.514;2023-06-24T09:46:07;24.90;99.90
52181;DHT22;38158;53.338;6.514;2023-06-24T09:48:34;25.00;99.90
52181;DHT22;38158;53.338;6.514;2023-06-24T09:51:01;25.10;99.90
52181;DHT22;38158;53.338;6.514;2023-06-24T09:53:32;25.30;99.90
52181;DHT22;38158;53.338;6.514;2023-06-24T09:56:03;25.40;99.90
52181;DHT22;38158;53.338;6.514;2023-06-24T09:58:32;25.50;99.90
52181;DHT22;38158;53.338;6.514;2023-06-24T10:01:04;25.50;99.90
52181;DHT22;38158;53.338;6.514;2023-06-24T10:03:33;25.60;99.90
52181;DHT22;38158;53.338;6.514;2023-06-24T10:06:00;25.70;99.90
52181;DHT22;38158;53.338;6.514;2023-06-24T10:08:28;25.80;99.90
52181;DHT22;38158;53.338;6.514;2023-06-24T10:10:54;25.90;99.90
52181;DHT22;38158;53.338;6.514;2023-06-24T10:13:20;25.90;99.90
52181;DHT22;38158;53.338;6.514;2023-06-24T10:15:46;26.00;99.90
52181;DHT22;38158;53.338;6.514;2023-06-24T10:18:45;26.00;99.90
52181;DHT22;38158;53.338;6.514;2023-06-24T10:21:11;25.90;99.90
52181;DHT22;38158;53.338;6.514;2023-06-24T10:23:52;26.00;99.90
52181;DHT22;38158;53.338;6.514;2023-06-24T10:26:28;26.10;99.90
52181;DHT22;38158;53.338;6.514;2023-06-24T10:47:43;26.60;99.90
52181;DHT22;38158;53.338;6.514;2023-06-24T10:50:11;26.80;99.90
52181;DHT22;38158;53.338;6.514;2023-06-24T10:52:39;26.90;99.90
52181;DHT22;38158;53.338;6.514;2023-06-24T10:55:06;27.10;99.90
52181;DHT22;38158;53.338;6.514;2023-06-24T10:57:33;27.10;99.90
52181;DHT22;38158;53.338;6.514;2023-06-24T10:59:59;27.00;99.90
52181;DHT22;38158;53.338;6.514;2023-06-24T11:02:26;27.00;99.90
52181;DHT22;38158;53.338;6.514;2023-06-24T11:05:00;27.00;99.90
52181;DHT22;38158;53.338;6.514;2023-06-24T11:07:31;27.10;99.90
52181;DHT22;38158;53.338;6.514;2023-06-24T11:10:17;27.20;99.90
52181;DHT22;38158;53.338;6.514;2023-06-24T11:12:43;27.10;98.90
52181;DHT22;38158;53.338;6.514;2023-06-24T11:15:13;26.90;99.90
52181;DHT22;38158;53.338;6.514;2023-06-24T11:17:40;26.90;99.90
52181;DHT22;38158;53.338;6.514;2023-06-24T11:20:11;27.10;99.90
52181;DHT22;38158;53.338;6.514;2023-06-24T11:22:37;27.20;99.90
52181;DHT22;38158;53.338;6.514;2023-06-24T11:25:03;27.40;99.90
52181;DHT22;38158;53.338;6.514;2023-06-24T11:27:30;27.60;99.90
52181;DHT22;38158;53.338;6.514;2023-06-24T11:29:57;27.70;98.10
52181;DHT22;38158;53.338;6.514;2023-06-24T11:32:40;27.90;92.00
52181;DHT22;38158;53.338;6.514;2023-06-24T11:35:08;28.00;93.10
52181;DHT22;38158;53.338;6.514;2023-06-24T11:37:34;28.00;95.20
52181;DHT22;38158;53.338;6.514;2023-06-24T11:40:02;27.90;95.60
52181;DHT22;38158;53.338;6.514;2023-06-24T11:42:32;27.70;96.50
52181;DHT22;38158;53.338;6.514;2023-06-24T11:45:06;27.60;96.90
52181;DHT22;38158;53.338;6.514;2023-06-24T11:47:33;27.50;97.30
52181;DHT22;38158;53.338;6.514;2023-06-24T11:50:05;27.60;97.90
52181;DHT22;38158;53.338;6.514;2023-06-24T11:52:49;27.70;97.60
52181;DHT22;38158;53.338;6.514;2023-06-24T11:55:20;27.90;96.10
52181;DHT22;38158;53.338;6.514;2023-06-24T11:57:53;27.90;96.80
52181;DHT22;38158;53.338;6.514;2023-06-24T12:00:29;28.10;97.30
52181;DHT22;38158;53.338;6.514;2023-06-24T12:03:22;27.90;99.90
52181;DHT22;38158;53.338;6.514;2023-06-24T12:05:47;27.60;99.90
52181;DHT22;38158;53.338;6.514;2023-06-24T12:08:14;27.30;99.90
52181;DHT22;38158;53.338;6.514;2023-06-24T12:10:41;27.10;99.90
52181;DHT22;38158;53.338;6.514;2023-06-24T12:13:07;26.70;99.90
52181;DHT22;38158;53.338;6.514;2023-06-24T12:15:34;26.30;99.90
52181;DHT22;38158;53.338;6.514;2023-06-24T12:18:00;26.00;99.90
52181;DHT22;38158;53.338;6.514;2023-06-24T12:20:28;25.80;99.90
52181;DHT22;38158;53.338;6.514;2023-06-24T12:22:54;25.70;99.90
52181;DHT22;38158;53.338;6.514;2023-06-24T12:25:20;25.60;99.90
52181;DHT22;38158;53.338;6.514;2023-06-24T12:27:46;25.60;99.90
52181;DHT22;38158;53.338;6.514;2023-06-24T12:30:13;25.60;99.90
52181;DHT22;38158;53.338;6.514;2023-06-24T12:32:39;25.50;99.90
52181;DHT22;38158;53.338;6.514;2023-06-24T12:35:05;25.40;99.90
52181;DHT22;38158;53.338;6.514;2023-06-24T12:37:33;25.30;99.90
52181;DHT22;38158;53.338;6.514;2023-06-24T12:40:00;25.10;99.90
52181;DHT22;38158;53.338;6.514;2023-06-24T12:42:26;25.00;99.90
52181;DHT22;38158;53.338;6.514;2023-06-24T12:44:52;24.80;99.90
52181;DHT22;38158;53.338;6.514;2023-06-24T12:47:18;24.90;99.90
52181;DHT22;38158;53.338;6.514;2023-06-24T12:49:44;25.00;99.90
52181;DHT22;38158;53.338;6.514;2023-06-24T12:52:10;25.00;99.90
52181;DHT22;38158;53.338;6.514;2023-06-24T12:54:35;24.80;99.90
52181;DHT22;38158;53.338;6.514;2023-06-24T12:57:02;24.80;99.90
52181;DHT22;38158;53.338;6.514;2023-06-24T12:59:27;24.80;99.90
52181;DHT22;38158;53.338;6.514;2023-06-24T13:01:53;24.90;99.90
52181;DHT22;38158;53.338;6.514;2023-06-24T13:04:19;25.00;99.90
52181;DHT22;38158;53.338;6.514;2023-06-24T13:06:47;25.00;99.90
52181;DHT22;38158;53.338;6.514;2023-06-24T13:09:13;25.10;99.90
52181;DHT22;38158;53.338;6.514;2023-06-24T13:11:39;25.00;99.90
52181;DHT22;38158;53.338;6.514;2023-06-24T13:14:05;25.20;99.90
52181;DHT22;38158;53.338;6.514;2023-06-24T13:16:31;25.40;99.90
52181;DHT22;38158;53.338;6.514;2023-06-24T13:18:58;25.50;99.90
52181;DHT22;38158;53.338;6.514;2023-06-24T13:21:24;25.40;99.90
52181;DHT22;38158;53.338;6.514;2023-06-24T13:23:50;25.50;99.90
52181;DHT22;38158;53.338;6.514;2023-06-24T13:26:15;25.60;99.90
52181;DHT22;38158;53.338;6.514;2023-06-24T13:28:41;25.70;99.90
52181;DHT22;38158;53.338;6.514;2023-06-24T13:31:07;25.70;99.90
52181;DHT22;38158;53.338;6.514;2023-06-24T13:33:33;25.70;99.90
52181;DHT22;38158;53.338;6.514;2023-06-24T13:35:59;25.80;99.90
52181;DHT22;38158;53.338;6.514;2023-06-24T13:38:24;25.90;99.90
52181;DHT22;38158;53.338;6.514;2023-06-24T13:40:50;25.90;99.90
52181;DHT22;38158;53.338;6.514;2023-06-24T13:43:16;26.00;99.90
52181;DHT22;38158;53.338;6.514;2023-06-24T13:45:41;26.00;99.90
52181;DHT22;38158;53.338;6.514;2023-06-24T13:48:07;26.00;99.90
52181;DHT22;38158;53.338;6.514;2023-06-24T13:50:33;25.80;99.90
52181;DHT22;38158;53.338;6.514;2023-06-24T13:52:59;25.80;99.90
52181;DHT22;38158;53.338;6.514;2023-06-24T13:55:25;25.70;99.90
52181;DHT22;38158;53.338;6.514;2023-06-24T13:57:51;25.70;99.90
52181;DHT22;38158;53.338;6.514;2023-06-24T14:00:17;25.70;99.90
52181;DHT22;38158;53.338;6.514;2023-06-24T14:02:42;25.70;99.90
52181;DHT22;38158;53.338;6.514;2023-06-24T14:05:08;25.70;99.90
52181;DHT22;38158;53.338;6.514;2023-06-24T14:07:35;25.70;99.90
52181;DHT22;38158;53.338;6.514;2023-06-24T14:10:01;25.60;99.90
52181;DHT22;38158;53.338;6.514;2023-06-24T14:12:27;25.60;99.90
52181;DHT22;38158;53.338;6.514;2023-06-24T14:14:52;25.60;99.90
52181;DHT22;38158;53.338;6.514;2023-06-24T14:17:18;25.50;99.90
52181;DHT22;38158;53.338;6.514;2023-06-24T14:19:47;25.50;99.90
52181;DHT22;38158;53.338;6.514;2023-06-24T14:22:13;25.50;99.90
52181;DHT22;38158;53.338;6.514;2023-06-24T14:24:38;25.40;99.90
52181;DHT22;38158;53.338;6.514;2023-06-24T14:27:07;25.50;99.90
52181;DHT22;38158;53.338;6.514;2023-06-24T14:29:33;25.60;99.90
52181;DHT22;38158;53.338;6.514;2023-06-24T14:31:59;25.60;99.90
52181;DHT22;38158;53.338;6.514;2023-06-24T14:34:24;25.60;99.90
52181;DHT22;38158;53.338;6.514;2023-06-24T14:36:50;25.60;99.90
52181;DHT22;38158;53.338;6.514;2023-06-24T14:39:16;25.60;99.90
52181;DHT22;38158;53.338;6.514;2023-06-24T14:41:44;25.60;99.90
52181;DHT22;38158;53.338;6.514;2023-06-24T14:44:10;25.60;99.90
52181;DHT22;38158;53.338;6.514;2023-06-24T14:46:36;25.60;99.90
52181;DHT22;38158;53.338;6.514;2023-06-24T14:49:03;25.60;99.90
52181;DHT22;38158;53.338;6.514;2023-06-24T14:51:28;25.60;99.90
52181;DHT22;38158;53.338;6.514;2023-06-24T14:53:54;25.50;99.90
52181;DHT22;38158;53.338;6.514;2023-06-24T14:56:20;25.30;99.90
52181;DHT22;38158;53.338;6.514;2023-06-24T14:58:45;25.30;99.90
52181;DHT22;38158;53.338;6.514;2023-06-24T15:01:11;25.30;99.90
52181;DHT22;38158;53.338;6.514;2023-06-24T15:03:37;25.40;99.90
52181;DHT22;38158;53.338;6.514;2023-06-24T15:06:03;25.30;99.90
52181;DHT22;38158;53.338;6.514;2023-06-24T15:08:28;25.30;99.90
52181;DHT22;38158;53.338;6.514;2023-06-24T15:10:54;25.40;99.90
52181;DHT22;38158;53.338;6.514;2023-06-24T15:13:20;25.50;99.90
52181;DHT22;38158;53.338;6.514;2023-06-24T15:15:45;25.50;99.90
52181;DHT22;38158;53.338;6.514;2023-06-24T15:18:11;25.40;99.90
52181;DHT22;38158;53.338;6.514;2023-06-24T15:20:37;25.30;99.90
52181;DHT22;38158;53.338;6.514;2023-06-24T15:23:02;25.20;99.90
52181;DHT22;38158;53.338;6.514;2023-06-24T15:25:29;25.10;99.90
52181;DHT22;38158;53.338;6.514;2023-06-24T15:27:54;25.00;99.90
52181;DHT22;38158;53.338;6.514;2023-06-24T15:30:20;25.00;99.90
52181;DHT22;38158;53.338;6.514;2023-06-24T15:32:47;25.00;99.90
52181;DHT22;38158;53.338;6.514;2023-06-24T15:35:13;25.00;99.90
52181;DHT22;38158;53.338;6.514;2023-06-24T15:37:38;24.90;99.90
52181;DHT22;38158;53.338;6.514;2023-06-24T15:40:05;24.80;99.90
52181;DHT22;38158;53.338;6.514;2023-06-24T15:42:31;24.70;99.90
52181;DHT22;38158;53.338;6.514;2023-06-24T15:44:56;24.70;99.90
52181;DHT22;38158;53.338;6.514;2023-06-24T15:47:22;24.70;99.90
52181;DHT22;38158;53.338;6.514;2023-06-24T15:49:48;24.60;99.90
52181;DHT22;38158;53.338;6.514;2023-06-24T15:52:15;24.50;99.90
52181;DHT22;38158;53.338;6.514;2023-06-24T15:54:40;24.50;99.90
52181;DHT22;38158;53.338;6.514;2023-06-24T15:57:06;24.50;99.90
52181;DHT22;38158;53.338;6.514;2023-06-24T15:59:32;24.60;99.90
52181;DHT22;38158;53.338;6.514;2023-06-24T16:01:57;24.50;99.90
52181;DHT22;38158;53.338;6.514;2023-06-24T16:04:23;24.50;99.90